Terminal Aerodrome Forecast
Issued by NWS Cleveland, OH

Home | Current Version | Previous Version | Graphics & Text | Print | Product List | Glossary Off
Versions: 1 2 3 4 5 6 7 8 9 10 11 12 13

000
FTUS41 KCLE 210500
TAFYNG
TAF
KYNG 210520Z 2106/2206 14007KT P6SM SCT250
     FM211600 20010KT P6SM BKN200
     FM212200 22012G18KT P6SM SCT040 BKN100=

USA.gov is the U.S. government's official web portal to all federal, state and local government web resources and services.